sensor_id;sensor_type;location;lat;lon;timestamp;temperature;humidity
1129;DHT22;553;51.038;7.216;2023-05-10T00:00:50;13.70;99.90
1129;DHT22;553;51.038;7.216;2023-05-10T00:03:17;13.60;99.90
1129;DHT22;553;51.038;7.216;2023-05-10T00:05:44;13.60;99.90
1129;DHT22;553;51.038;7.216;2023-05-10T00:08:11;13.60;99.90
1129;DHT22;553;51.038;7.216;2023-05-10T00:10:38;13.60;99.90
1129;DHT22;553;51.038;7.216;2023-05-10T00:13:04;13.60;99.90
1129;DHT22;553;51.038;7.216;2023-05-10T00:15:31;13.70;99.90
1129;DHT22;553;51.038;7.216;2023-05-10T00:17:58;13.70;99.90
1129;DHT22;553;51.038;7.216;2023-05-10T00:20:25;13.70;99.90
1129;DHT22;553;51.038;7.216;2023-05-10T00:22:51;13.70;99.90
1129;DHT22;553;51.038;7.216;2023-05-10T00:25:18;13.80;99.90
1129;DHT22;553;51.038;7.216;2023-05-10T00:27:45;13.80;99.90
1129;DHT22;553;51.038;7.216;2023-05-10T00:30:11;13.90;99.90
1129;DHT22;553;51.038;7.216;2023-05-10T00:32:38;13.90;99.90
1129;DHT22;553;51.038;7.216;2023-05-10T00:35:05;13.90;99.90
1129;DHT22;553;51.038;7.216;2023-05-10T00:37:32;13.80;99.90
1129;DHT22;553;51.038;7.216;2023-05-10T00:40:00;13.70;99.90
1129;DHT22;553;51.038;7.216;2023-05-10T00:42:26;13.70;99.90
1129;DHT22;553;51.038;7.216;2023-05-10T00:44:54;13.70;99.90
1129;DHT22;553;51.038;7.216;2023-05-10T00:47:21;13.80;99.90
1129;DHT22;553;51.038;7.216;2023-05-10T00:49:48;13.80;99.90
1129;DHT22;553;51.038;7.216;2023-05-10T00:52:15;13.60;99.90
1129;DHT22;553;51.038;7.216;2023-05-10T00:54:42;13.60;99.90
1129;DHT22;553;51.038;7.216;2023-05-10T00:57:10;13.60;99.90
1129;DHT22;553;51.038;7.216;2023-05-10T00:59:36;13.60;99.90
1129;DHT22;553;51.038;7.216;2023-05-10T01:02:03;13.70;99.90
1129;DHT22;553;51.038;7.216;2023-05-10T01:04:30;13.70;99.90
1129;DHT22;553;51.038;7.216;2023-05-10T01:06:57;13.70;99.90
1129;DHT22;553;51.038;7.216;2023-05-10T01:09:24;13.80;99.90
1129;DHT22;553;51.038;7.216;2023-05-10T01:11:54;13.70;99.90
1129;DHT22;553;51.038;7.216;2023-05-10T01:14:21;13.70;99.90
1129;DHT22;553;51.038;7.216;2023-05-10T01:16:49;13.80;99.90
1129;DHT22;553;51.038;7.216;2023-05-10T01:19:23;13.70;99.90
1129;DHT22;553;51.038;7.216;2023-05-10T01:30:35;13.70;99.90
1129;DHT22;553;51.038;7.216;2023-05-10T01:33:35;13.70;99.90
1129;DHT22;553;51.038;7.216;2023-05-10T01:36:05;13.60;99.90
1129;DHT22;553;51.038;7.216;2023-05-10T01:38:42;13.60;99.90
1129;DHT22;553;51.038;7.216;2023-05-10T01:41:20;13.60;99.90
1129;DHT22;553;51.038;7.216;2023-05-10T01:46:53;13.60;99.90
1129;DHT22;553;51.038;7.216;2023-05-10T01:49:26;13.50;99.90
1129;DHT22;553;51.038;7.216;2023-05-10T01:52:04;13.60;99.90
1129;DHT22;553;51.038;7.216;2023-05-10T01:54:33;13.60;99.90
1129;DHT22;553;51.038;7.216;2023-05-10T01:57:05;13.50;99.90
1129;DHT22;553;51.038;7.216;2023-05-10T01:59:34;13.60;99.90
1129;DHT22;553;51.038;7.216;2023-05-10T02:02:07;13.60;99.90
1129;DHT22;553;51.038;7.216;2023-05-10T02:04:39;13.70;99.90
1129;DHT22;553;51.038;7.216;2023-05-10T02:07:08;13.60;99.90
1129;DHT22;553;51.038;7.216;2023-05-10T02:09:36;13.60;99.90
1129;DHT22;553;51.038;7.216;2023-05-10T02:12:05;13.60;99.90
1129;DHT22;553;51.038;7.216;2023-05-10T02:14:36;13.60;99.90
1129;DHT22;553;51.038;7.216;2023-05-10T02:17:05;13.60;99.90
1129;DHT22;553;51.038;7.216;2023-05-10T02:19:32;13.50;99.90
1129;DHT22;553;51.038;7.216;2023-05-10T02:22:00;13.60;99.90
1129;DHT22;553;51.038;7.216;2023-05-10T02:24:28;13.70;99.90
1129;DHT22;553;51.038;7.216;2023-05-10T02:26:56;13.60;99.90
1129;DHT22;553;51.038;7.216;2023-05-10T02:29:24;13.60;99.90
1129;DHT22;553;51.038;7.216;2023-05-10T02:31:54;13.60;99.90
1129;DHT22;553;51.038;7.216;2023-05-10T02:34:22;13.60;99.90
1129;DHT22;553;51.038;7.216;2023-05-10T02:36:50;13.50;99.90
1129;DHT22;553;51.038;7.216;2023-05-10T02:39:19;13.60;99.90
1129;DHT22;553;51.038;7.216;2023-05-10T02:41:48;13.60;99.90
1129;DHT22;553;51.038;7.216;2023-05-10T02:44:18;13.50;99.90
1129;DHT22;553;51.038;7.216;2023-05-10T02:46:46;13.50;99.90
1129;DHT22;553;51.038;7.216;2023-05-10T02:49:13;13.50;99.90
1129;DHT22;553;51.038;7.216;2023-05-10T02:51:51;13.50;99.90
1129;DHT22;553;51.038;7.216;2023-05-10T02:54:27;13.50;99.90
1129;DHT22;553;51.038;7.216;2023-05-10T02:56:57;13.50;99.90
1129;DHT22;553;51.038;7.216;2023-05-10T02:59:26;13.50;99.90
1129;DHT22;553;51.038;7.216;2023-05-10T03:01:52;13.40;99.90
1129;DHT22;553;51.038;7.216;2023-05-10T03:04:19;13.40;99.90
1129;DHT22;553;51.038;7.216;2023-05-10T03:06:47;13.40;99.90
1129;DHT22;553;51.038;7.216;2023-05-10T03:09:14;13.40;99.90
1129;DHT22;553;51.038;7.216;2023-05-10T03:17:30;13.40;99.90
1129;DHT22;553;51.038;7.216;2023-05-10T03:20:07;13.40;99.90
1129;DHT22;553;51.038;7.216;2023-05-10T03:22:47;13.40;99.90
1129;DHT22;553;51.038;7.216;2023-05-10T03:25:15;13.40;99.90
1129;DHT22;553;51.038;7.216;2023-05-10T03:27:43;13.40;99.90
1129;DHT22;553;51.038;7.216;2023-05-10T03:30:12;13.30;99.90
1129;DHT22;553;51.038;7.216;2023-05-10T03:32:40;13.40;99.90
1129;DHT22;553;51.038;7.216;2023-05-10T03:35:08;13.50;99.90
1129;DHT22;553;51.038;7.216;2023-05-10T03:37:36;13.50;99.90
1129;DHT22;553;51.038;7.216;2023-05-10T03:40:03;13.50;99.90
1129;DHT22;553;51.038;7.216;2023-05-10T03:42:32;13.60;99.90
1129;DHT22;553;51.038;7.216;2023-05-10T03:44:59;13.60;99.90
1129;DHT22;553;51.038;7.216;2023-05-10T03:47:26;13.50;99.90
1129;DHT22;553;51.038;7.216;2023-05-10T03:49:53;13.50;99.90
1129;DHT22;553;51.038;7.216;2023-05-10T03:52:19;13.40;99.90
1129;DHT22;553;51.038;7.216;2023-05-10T03:54:47;13.50;99.90
1129;DHT22;553;51.038;7.216;2023-05-10T03:57:14;13.50;99.90
1129;DHT22;553;51.038;7.216;2023-05-10T03:59:41;13.40;99.90
1129;DHT22;553;51.038;7.216;2023-05-10T04:02:07;13.60;99.90
1129;DHT22;553;51.038;7.216;2023-05-10T04:04:35;13.60;99.90
1129;DHT22;553;51.038;7.216;2023-05-10T04:07:02;13.60;99.90
1129;DHT22;553;51.038;7.216;2023-05-10T04:09:29;13.70;99.90
1129;DHT22;553;51.038;7.216;2023-05-10T04:11:56;13.60;99.90
1129;DHT22;553;51.038;7.216;2023-05-10T04:14:22;13.60;99.90
1129;DHT22;553;51.038;7.216;2023-05-10T04:16:49;13.60;99.90
1129;DHT22;553;51.038;7.216;2023-05-10T04:19:16;13.60;99.90
1129;DHT22;553;51.038;7.216;2023-05-10T04:21:42;13.50;99.90
1129;DHT22;553;51.038;7.216;2023-05-10T04:24:09;13.50;99.90
1129;DHT22;553;51.038;7.216;2023-05-10T04:26:36;13.40;99.90
1129;DHT22;553;51.038;7.216;2023-05-10T04:29:02;13.40;99.90
1129;DHT22;553;51.038;7.216;2023-05-10T04:31:29;13.50;99.90
1129;DHT22;553;51.038;7.216;2023-05-10T04:33:56;13.50;99.90
1129;DHT22;553;51.038;7.216;2023-05-10T04:36:22;13.70;99.90
1129;DHT22;553;51.038;7.216;2023-05-10T04:38:49;13.60;99.90
1129;DHT22;553;51.038;7.216;2023-05-10T04:41:15;13.50;99.90
1129;DHT22;553;51.038;7.216;2023-05-10T04:43:42;13.50;99.90
1129;DHT22;553;51.038;7.216;2023-05-10T04:46:09;13.60;99.90
1129;DHT22;553;51.038;7.216;2023-05-10T04:48:35;13.60;99.90
1129;DHT22;553;51.038;7.216;2023-05-10T04:51:02;13.50;99.90
1129;DHT22;553;51.038;7.216;2023-05-10T04:53:30;13.50;99.90
1129;DHT22;553;51.038;7.216;2023-05-10T04:55:57;13.40;99.90
1129;DHT22;553;51.038;7.216;2023-05-10T04:58:23;13.50;99.90
1129;DHT22;553;51.038;7.216;2023-05-10T05:00:50;13.50;99.90
1129;DHT22;553;51.038;7.216;2023-05-10T05:03:16;13.60;99.90
1129;DHT22;553;51.038;7.216;2023-05-10T05:05:43;13.60;99.90
1129;DHT22;553;51.038;7.216;2023-05-10T05:08:11;13.70;99.90
1129;DHT22;553;51.038;7.216;2023-05-10T05:10:37;13.70;99.90
1129;DHT22;553;51.038;7.216;2023-05-10T05:13:04;13.70;99.90
1129;DHT22;553;51.038;7.216;2023-05-10T05:15:31;13.70;99.90
1129;DHT22;553;51.038;7.216;2023-05-10T05:17:58;13.80;99.90
1129;DHT22;553;51.038;7.216;2023-05-10T05:20:24;13.80;99.90
1129;DHT22;553;51.038;7.216;2023-05-10T05:22:51;13.70;99.90
1129;DHT22;553;51.038;7.216;2023-05-10T05:25:18;13.80;99.90
1129;DHT22;553;51.038;7.216;2023-05-10T05:27:44;13.70;99.90
1129;DHT22;553;51.038;7.216;2023-05-10T05:30:11;13.60;99.90
1129;DHT22;553;51.038;7.216;2023-05-10T05:32:38;13.50;99.90
1129;DHT22;553;51.038;7.216;2023-05-10T05:35:05;13.50;99.90
1129;DHT22;553;51.038;7.216;2023-05-10T05:37:32;13.50;99.90
1129;DHT22;553;51.038;7.216;2023-05-10T05:39:59;13.50;99.90
1129;DHT22;553;51.038;7.216;2023-05-10T05:42:27;13.40;99.90
1129;DHT22;553;51.038;7.216;2023-05-10T05:44:54;13.50;99.90
1129;DHT22;553;51.038;7.216;2023-05-10T05:47:20;13.40;99.90
1129;DHT22;553;51.038;7.216;2023-05-10T05:49:47;13.50;99.90
1129;DHT22;553;51.038;7.216;2023-05-10T05:52:14;13.50;99.90
1129;DHT22;553;51.038;7.216;2023-05-10T05:54:40;13.50;99.90
1129;DHT22;553;51.038;7.216;2023-05-10T05:57:07;13.50;99.90
1129;DHT22;553;51.038;7.216;2023-05-10T05:59:34;13.40;99.90
1129;DHT22;553;51.038;7.216;2023-05-10T06:02:00;13.50;99.90
1129;DHT22;553;51.038;7.216;2023-05-10T06:04:27;13.50;99.90
1129;DHT22;553;51.038;7.216;2023-05-10T06:06:54;13.50;99.90
1129;DHT22;553;51.038;7.216;2023-05-10T06:09:21;13.50;99.90
1129;DHT22;553;51.038;7.216;2023-05-10T06:11:47;13.70;99.90
1129;DHT22;553;51.038;7.216;2023-05-10T06:14:14;13.60;99.90
1129;DHT22;553;51.038;7.216;2023-05-10T06:16:41;13.70;99.90
1129;DHT22;553;51.038;7.216;2023-05-10T06:19:07;13.60;99.90
1129;DHT22;553;51.038;7.216;2023-05-10T06:21:34;13.60;99.90
1129;DHT22;553;51.038;7.216;2023-05-10T06:24:01;13.60;99.90
1129;DHT22;553;51.038;7.216;2023-05-10T06:26:28;13.70;99.90
1129;DHT22;553;51.038;7.216;2023-05-10T06:28:55;13.70;99.90
1129;DHT22;553;51.038;7.216;2023-05-10T06:31:22;13.90;99.90
1129;DHT22;553;51.038;7.216;2023-05-10T06:33:48;13.90;99.90
1129;DHT22;553;51.038;7.216;2023-05-10T06:36:15;13.90;99.90
1129;DHT22;553;51.038;7.216;2023-05-10T06:38:42;13.90;99.90
1129;DHT22;553;51.038;7.216;2023-05-10T06:41:08;13.80;99.90
1129;DHT22;553;51.038;7.216;2023-05-10T06:43:35;13.90;99.90
1129;DHT22;553;51.038;7.216;2023-05-10T06:46:03;13.80;99.90
1129;DHT22;553;51.038;7.216;2023-05-10T06:48:30;13.80;99.90
1129;DHT22;553;51.038;7.216;2023-05-10T06:50:56;13.80;99.90
1129;DHT22;553;51.038;7.216;2023-05-10T06:53:23;13.80;99.90
1129;DHT22;553;51.038;7.216;2023-05-10T06:55:50;13.70;99.90
1129;DHT22;553;51.038;7.216;2023-05-10T06:58:16;13.80;99.90
1129;DHT22;553;51.038;7.216;2023-05-10T07:00:43;13.80;99.90
1129;DHT22;553;51.038;7.216;2023-05-10T07:03:10;13.80;99.90
1129;DHT22;553;51.038;7.216;2023-05-10T07:05:37;13.80;99.90
1129;DHT22;553;51.038;7.216;2023-05-10T07:08:03;13.90;99.90
1129;DHT22;553;51.038;7.216;2023-05-10T07:10:30;13.90;99.90
1129;DHT22;553;51.038;7.216;2023-05-10T07:12:57;13.80;99.90
1129;DHT22;553;51.038;7.216;2023-05-10T07:15:24;13.80;99.90
1129;DHT22;553;51.038;7.216;2023-05-10T07:17:50;13.90;99.90
1129;DHT22;553;51.038;7.216;2023-05-10T07:20:18;13.80;99.90
1129;DHT22;553;51.038;7.216;2023-05-10T07:22:45;13.80;99.90
1129;DHT22;553;51.038;7.216;2023-05-10T07:25:11;13.80;99.90
1129;DHT22;553;51.038;7.216;2023-05-10T07:27:38;13.80;99.90
1129;DHT22;553;51.038;7.216;2023-05-10T07:30:05;13.80;99.90
1129;DHT22;553;51.038;7.216;2023-05-10T07:32:32;13.80;99.90
1129;DHT22;553;51.038;7.216;2023-05-10T07:34:59;13.80;99.90
1129;DHT22;553;51.038;7.216;2023-05-10T07:37:25;13.70;99.90
1129;DHT22;553;51.038;7.216;2023-05-10T07:39:52;13.70;99.90
1129;DHT22;553;51.038;7.216;2023-05-10T07:42:19;13.70;99.90
1129;DHT22;553;51.038;7.216;2023-05-10T07:44:45;13.70;99.90
1129;DHT22;553;51.038;7.216;2023-05-10T07:47:12;13.70;99.90
1129;DHT22;553;51.038;7.216;2023-05-10T07:49:38;13.60;99.90
1129;DHT22;553;51.038;7.216;2023-05-10T07:52:05;13.70;99.90
1129;DHT22;553;51.038;7.216;2023-05-10T07:54:32;13.80;99.90
1129;DHT22;553;51.038;7.216;2023-05-10T07:57:00;13.80;99.90
1129;DHT22;553;51.038;7.216;2023-05-10T07:59:27;13.70;99.90
1129;DHT22;553;51.038;7.216;2023-05-10T08:01:53;13.70;99.90
1129;DHT22;553;51.038;7.216;2023-05-10T08:04:20;13.80;99.90
1129;DHT22;553;51.038;7.216;2023-05-10T08:06:47;13.70;99.90
1129;DHT22;553;51.038;7.216;2023-05-10T08:09:13;13.80;99.90
1129;DHT22;553;51.038;7.216;2023-05-10T08:11:40;13.90;99.90
1129;DHT22;553;51.038;7.216;2023-05-10T08:14:07;13.90;99.90
1129;DHT22;553;51.038;7.216;2023-05-10T08:16:34;14.00;99.90
1129;DHT22;553;51.038;7.216;2023-05-10T08:19:00;14.10;99.90
1129;DHT22;553;51.038;7.216;2023-05-10T08:21:27;14.10;99.90
1129;DHT22;553;51.038;7.216;2023-05-10T08:23:54;14.00;99.90
1129;DHT22;553;51.038;7.216;2023-05-10T08:26:20;14.00;99.90
1129;DHT22;553;51.038;7.216;2023-05-10T08:28:47;14.10;99.90
1129;DHT22;553;51.038;7.216;2023-05-10T08:31:15;14.20;99.90
1129;DHT22;553;51.038;7.216;2023-05-10T08:33:42;14.20;99.90
1129;DHT22;553;51.038;7.216;2023-05-10T08:36:10;14.20;99.90
1129;DHT22;553;51.038;7.216;2023-05-10T08:38:37;14.30;99.90
1129;DHT22;553;51.038;7.216;2023-05-10T08:41:05;14.20;99.90
1129;DHT22;553;51.038;7.216;2023-05-10T08:43:32;14.20;99.90
1129;DHT22;553;51.038;7.216;2023-05-10T08:46:00;14.40;99.90
1129;DHT22;553;51.038;7.216;2023-05-10T08:48:29;14.50;99.90
1129;DHT22;553;51.038;7.216;2023-05-10T08:50:59;14.70;99.90
1129;DHT22;553;51.038;7.216;2023-05-10T08:53:27;14.60;99.90
1129;DHT22;553;51.038;7.216;2023-05-10T08:55:55;14.60;99.90
1129;DHT22;553;51.038;7.216;2023-05-10T08:58:22;14.70;99.90
1129;DHT22;553;51.038;7.216;2023-05-10T09:00:49;14.60;99.90
1129;DHT22;553;51.038;7.216;2023-05-10T09:03:19;14.60;99.90
1129;DHT22;553;51.038;7.216;2023-05-10T09:05:46;14.50;99.90
1129;DHT22;553;51.038;7.216;2023-05-10T09:08:14;14.60;99.90
1129;DHT22;553;51.038;7.216;2023-05-10T09:10:43;14.70;99.90
1129;DHT22;553;51.038;7.216;2023-05-10T09:13:11;14.70;99.90
1129;DHT22;553;51.038;7.216;2023-05-10T09:15:38;14.60;99.90
1129;DHT22;553;51.038;7.216;2023-05-10T09:18:05;14.70;99.90
1129;DHT22;553;51.038;7.216;2023-05-10T09:20:32;14.70;99.90
1129;DHT22;553;51.038;7.216;2023-05-10T09:22:59;14.70;99.90
1129;DHT22;553;51.038;7.216;2023-05-10T09:25:25;14.50;99.90
1129;DHT22;553;51.038;7.216;2023-05-10T09:27:52;14.50;99.90
1129;DHT22;553;51.038;7.216;2023-05-10T09:30:29;14.40;99.90
1129;DHT22;553;51.038;7.216;2023-05-10T09:32:57;14.40;99.90
1129;DHT22;553;51.038;7.216;2023-05-10T09:35:26;14.50;99.90
1129;DHT22;553;51.038;7.216;2023-05-10T09:37:57;14.60;99.90
1129;DHT22;553;51.038;7.216;2023-05-10T09:40:25;14.50;99.90
1129;DHT22;553;51.038;7.216;2023-05-10T09:42:56;14.40;99.90
1129;DHT22;553;51.038;7.216;2023-05-10T09:45:25;14.20;99.90
1129;DHT22;553;51.038;7.216;2023-05-10T09:47:52;14.30;99.90
1129;DHT22;553;51.038;7.216;2023-05-10T09:50:19;14.30;99.90
1129;DHT22;553;51.038;7.216;2023-05-10T09:53:00;14.40;99.90
1129;DHT22;553;51.038;7.216;2023-05-10T09:55:43;14.40;99.90
1129;DHT22;553;51.038;7.216;2023-05-10T09:58:13;14.40;99.90
1129;DHT22;553;51.038;7.216;2023-05-10T10:00:44;14.50;99.90
1129;DHT22;553;51.038;7.216;2023-05-10T10:03:19;14.40;99.90
1129;DHT22;553;51.038;7.216;2023-05-10T10:05:47;14.50;99.90
1129;DHT22;553;51.038;7.216;2023-05-10T10:08:15;14.50;99.90
1129;DHT22;553;51.038;7.216;2023-05-10T10:10:42;14.50;99.90
1129;DHT22;553;51.038;7.216;2023-05-10T10:13:12;14.50;99.90
1129;DHT22;553;51.038;7.216;2023-05-10T10:15:38;14.50;99.90
1129;DHT22;553;51.038;7.216;2023-05-10T10:18:05;14.40;99.90
1129;DHT22;553;51.038;7.216;2023-05-10T10:20:33;14.40;99.90
1129;DHT22;553;51.038;7.216;2023-05-10T10:23:00;14.50;99.90
1129;DHT22;553;51.038;7.216;2023-05-10T10:25:26;14.60;99.90
1129;DHT22;553;51.038;7.216;2023-05-10T10:35:55;14.60;99.90
1129;DHT22;553;51.038;7.216;2023-05-10T10:38:24;14.80;99.90
1129;DHT22;553;51.038;7.216;2023-05-10T10:41:09;15.10;99.90
1129;DHT22;553;51.038;7.216;2023-05-10T10:43:36;15.00;99.90
1129;DHT22;553;51.038;7.216;2023-05-10T10:46:13;14.90;99.90
1129;DHT22;553;51.038;7.216;2023-05-10T10:48:41;15.00;99.90
1129;DHT22;553;51.038;7.216;2023-05-10T10:51:13;14.80;99.90
1129;DHT22;553;51.038;7.216;2023-05-10T10:53:40;14.80;99.90
1129;DHT22;553;51.038;7.216;2023-05-10T10:56:09;14.70;99.90
1129;DHT22;553;51.038;7.216;2023-05-10T10:58:37;14.80;99.90
1129;DHT22;553;51.038;7.216;2023-05-10T11:01:15;14.70;99.90
1129;DHT22;553;51.038;7.216;2023-05-10T11:06:34;14.60;99.90
1129;DHT22;553;51.038;7.216;2023-05-10T11:09:07;14.60;99.90
1129;DHT22;553;51.038;7.216;2023-05-10T11:11:35;14.70;99.90
1129;DHT22;553;51.038;7.216;2023-05-10T11:14:06;14.70;99.90
1129;DHT22;553;51.038;7.216;2023-05-10T11:16:43;14.80;99.90
1129;DHT22;553;51.038;7.216;2023-05-10T11:19:12;14.80;99.90
1129;DHT22;553;51.038;7.216;2023-05-10T11:21:47;14.80;99.90
1129;DHT22;553;51.038;7.216;2023-05-10T11:24:27;14.90;99.90
1129;DHT22;553;51.038;7.216;2023-05-10T11:26:53;14.90;99.90
1129;DHT22;553;51.038;7.216;2023-05-10T11:29:20;14.80;99.90
1129;DHT22;553;51.038;7.216;2023-05-10T11:31:47;14.80;99.90
1129;DHT22;553;51.038;7.216;2023-05-10T11:34:26;14.80;99.90
1129;DHT22;553;51.038;7.216;2023-05-10T11:36:54;14.80;99.90
1129;DHT22;553;51.038;7.216;2023-05-10T11:39:25;14.80;99.90
1129;DHT22;553;51.038;7.216;2023-05-10T11:41:52;14.90;99.90
1129;DHT22;553;51.038;7.216;2023-05-10T11:44:18;15.00;99.90
1129;DHT22;553;51.038;7.216;2023-05-10T11:46:45;15.10;99.90
1129;DHT22;553;51.038;7.216;2023-05-10T11:49:12;15.10;99.90
1129;DHT22;553;51.038;7.216;2023-05-10T11:51:39;15.30;99.90
1129;DHT22;553;51.038;7.216;2023-05-10T11:54:08;15.20;99.90
1129;DHT22;553;51.038;7.216;2023-05-10T11:56:39;15.40;99.90
1129;DHT22;553;51.038;7.216;2023-05-10T11:59:06;15.60;99.90
1129;DHT22;553;51.038;7.216;2023-05-10T12:01:34;15.80;99.90
1129;DHT22;553;51.038;7.216;2023-05-10T12:04:01;15.90;99.90
1129;DHT22;553;51.038;7.216;2023-05-10T12:06:34;15.80;99.90
1129;DHT22;553;51.038;7.216;2023-05-10T12:09:06;16.00;99.90
1129;DHT22;553;51.038;7.216;2023-05-10T12:11:38;16.10;99.90
1129;DHT22;553;51.038;7.216;2023-05-10T12:14:09;16.00;99.90
1129;DHT22;553;51.038;7.216;2023-05-10T12:16:37;16.00;99.90
1129;DHT22;553;51.038;7.216;2023-05-10T12:19:03;15.90;99.90
1129;DHT22;553;51.038;7.216;2023-05-10T12:21:32;15.90;99.90
1129;DHT22;553;51.038;7.216;2023-05-10T12:24:01;15.90;99.90
1129;DHT22;553;51.038;7.216;2023-05-10T12:26:28;15.70;99.90
1129;DHT22;553;51.038;7.216;2023-05-10T12:29:14;15.70;99.90
1129;DHT22;553;51.038;7.216;2023-05-10T12:31:55;15.50;99.90
1129;DHT22;553;51.038;7.216;2023-05-10T12:34:33;15.50;99.90
1129;DHT22;553;51.038;7.216;2023-05-10T12:37:01;15.70;99.90
1129;DHT22;553;51.038;7.216;2023-05-10T12:39:42;16.00;99.90
1129;DHT22;553;51.038;7.216;2023-05-10T12:42:09;16.30;99.90
1129;DHT22;553;51.038;7.216;2023-05-10T12:44:36;16.40;99.90
1129;DHT22;553;51.038;7.216;2023-05-10T12:47:03;16.40;99.90
1129;DHT22;553;51.038;7.216;2023-05-10T12:49:29;16.30;99.90
1129;DHT22;553;51.038;7.216;2023-05-10T12:51:56;16.30;99.90
1129;DHT22;553;51.038;7.216;2023-05-10T12:54:23;16.30;99.90
1129;DHT22;553;51.038;7.216;2023-05-10T12:56:49;16.20;99.90
1129;DHT22;553;51.038;7.216;2023-05-10T12:59:16;16.20;99.90
1129;DHT22;553;51.038;7.216;2023-05-10T13:01:42;16.10;99.90
1129;DHT22;553;51.038;7.216;2023-05-10T13:04:09;16.20;99.90
1129;DHT22;553;51.038;7.216;2023-05-10T13:06:36;16.20;99.90
1129;DHT22;553;51.038;7.216;2023-05-10T13:09:03;16.10;99.90
1129;DHT22;553;51.038;7.216;2023-05-10T13:11:30;16.30;99.90
1129;DHT22;553;51.038;7.216;2023-05-10T13:13:56;16.20;99.90
1129;DHT22;553;51.038;7.216;2023-05-10T13:16:23;16.50;99.90
1129;DHT22;553;51.038;7.216;2023-05-10T13:18:50;16.50;99.90
1129;DHT22;553;51.038;7.216;2023-05-10T13:21:17;16.50;99.90
1129;DHT22;553;51.038;7.216;2023-05-10T13:23:43;16.70;99.90
1129;DHT22;553;51.038;7.216;2023-05-10T13:26:10;16.70;99.90
1129;DHT22;553;51.038;7.216;2023-05-10T13:28:36;16.60;99.90
1129;DHT22;553;51.038;7.216;2023-05-10T13:31:05;16.60;99.90
1129;DHT22;553;51.038;7.216;2023-05-10T13:33:31;16.60;99.90
1129;DHT22;553;51.038;7.216;2023-05-10T13:35:58;16.60;99.90
1129;DHT22;553;51.038;7.216;2023-05-10T13:38:25;16.60;99.90
1129;DHT22;553;51.038;7.216;2023-05-10T13:40:52;16.60;99.90
1129;DHT22;553;51.038;7.216;2023-05-10T13:43:19;16.70;99.90
1129;DHT22;553;51.038;7.216;2023-05-10T13:45:46;16.70;99.90
1129;DHT22;553;51.038;7.216;2023-05-10T13:48:12;16.70;99.90
1129;DHT22;553;51.038;7.216;2023-05-10T13:50:39;16.60;99.90
1129;DHT22;553;51.038;7.216;2023-05-10T13:53:06;16.80;99.90
1129;DHT22;553;51.038;7.216;2023-05-10T13:55:33;16.80;99.90
1129;DHT22;553;51.038;7.216;2023-05-10T13:58:00;16.90;99.90
1129;DHT22;553;51.038;7.216;2023-05-10T14:00:26;17.10;99.90
1129;DHT22;553;51.038;7.216;2023-05-10T14:02:53;17.20;99.90
1129;DHT22;553;51.038;7.216;2023-05-10T14:05:20;17.00;99.90
1129;DHT22;553;51.038;7.216;2023-05-10T14:07:51;16.90;99.90
1129;DHT22;553;51.038;7.216;2023-05-10T14:10:18;17.00;99.90
1129;DHT22;553;51.038;7.216;2023-05-10T14:12:44;16.80;99.90
1129;DHT22;553;51.038;7.216;2023-05-10T14:15:11;16.90;99.90
1129;DHT22;553;51.038;7.216;2023-05-10T14:17:38;16.80;99.90
1129;DHT22;553;51.038;7.216;2023-05-10T14:20:05;16.80;99.90
1129;DHT22;553;51.038;7.216;2023-05-10T14:22:32;16.80;99.90
1129;DHT22;553;51.038;7.216;2023-05-10T14:25:00;16.90;99.90
1129;DHT22;553;51.038;7.216;2023-05-10T14:27:27;17.00;99.90
1129;DHT22;553;51.038;7.216;2023-05-10T14:29:53;16.90;99.90
1129;DHT22;553;51.038;7.216;2023-05-10T14:32:20;16.90;99.90
1129;DHT22;553;51.038;7.216;2023-05-10T14:34:47;16.80;99.90
1129;DHT22;553;51.038;7.216;2023-05-10T14:37:14;16.90;99.90
1129;DHT22;553;51.038;7.216;2023-05-10T14:39:41;16.90;99.90
1129;DHT22;553;51.038;7.216;2023-05-10T14:42:09;17.00;99.90
1129;DHT22;553;51.038;7.216;2023-05-10T14:44:35;17.00;99.90
1129;DHT22;553;51.038;7.216;2023-05-10T14:47:02;17.10;99.90
1129;DHT22;553;51.038;7.216;2023-05-10T14:49:29;17.10;99.90
1129;DHT22;553;51.038;7.216;2023-05-10T14:51:55;17.20;99.90
1129;DHT22;553;51.038;7.216;2023-05-10T14:54:22;17.30;99.90
1129;DHT22;553;51.038;7.216;2023-05-10T14:56:48;17.30;99.90
1129;DHT22;553;51.038;7.216;2023-05-10T14:59:16;17.40;99.90
1129;DHT22;553;51.038;7.216;2023-05-10T15:01:43;17.40;99.90
1129;DHT22;553;51.038;7.216;2023-05-10T15:04:11;17.50;99.90
1129;DHT22;553;51.038;7.216;2023-05-10T15:06:40;17.50;99.90
1129;DHT22;553;51.038;7.216;2023-05-10T15:09:07;17.60;99.90
1129;DHT22;553;51.038;7.216;2023-05-10T15:11:34;17.60;99.90
1129;DHT22;553;51.038;7.216;2023-05-10T15:14:01;17.60;99.90
1129;DHT22;553;51.038;7.216;2023-05-10T15:16:28;17.60;99.90
1129;DHT22;553;51.038;7.216;2023-05-10T15:18:55;17.60;99.90
1129;DHT22;553;51.038;7.216;2023-05-10T15:21:21;17.50;99.70
1129;DHT22;553;51.038;7.216;2023-05-10T15:23:48;17.60;99.90
1129;DHT22;553;51.038;7.216;2023-05-10T15:26:15;17.60;99.10
1129;DHT22;553;51.038;7.216;2023-05-10T15:28:41;17.60;98.60
1129;DHT22;553;51.038;7.216;2023-05-10T15:31:08;17.50;99.90
1129;DHT22;553;51.038;7.216;2023-05-10T15:33:36;17.50;99.70
1129;DHT22;553;51.038;7.216;2023-05-10T15:36:03;17.50;99.70
1129;DHT22;553;51.038;7.216;2023-05-10T15:38:30;17.30;99.90
1129;DHT22;553;51.038;7.216;2023-05-10T15:40:57;17.20;99.90
1129;DHT22;553;51.038;7.216;2023-05-10T15:43:24;17.30;99.90
1129;DHT22;553;51.038;7.216;2023-05-10T15:45:51;17.20;99.90
1129;DHT22;553;51.038;7.216;2023-05-10T15:48:17;17.20;99.90
1129;DHT22;553;51.038;7.216;2023-05-10T15:50:44;17.40;99.90
1129;DHT22;553;51.038;7.216;2023-05-10T15:53:11;17.30;99.90
1129;DHT22;553;51.038;7.216;2023-05-10T15:55:38;17.30;99.90
1129;DHT22;553;51.038;7.216;2023-05-10T15:58:04;17.20;99.90
1129;DHT22;553;51.038;7.216;2023-05-10T16:00:31;17.10;99.90
1129;DHT22;553;51.038;7.216;2023-05-10T16:02:58;17.20;99.90
1129;DHT22;553;51.038;7.216;2023-05-10T16:05:25;17.20;99.90
1129;DHT22;553;51.038;7.216;2023-05-10T16:07:55;17.20;99.90
1129;DHT22;553;51.038;7.216;2023-05-10T16:10:22;17.30;99.60
1129;DHT22;553;51.038;7.216;2023-05-10T16:12:48;17.20;99.90
1129;DHT22;553;51.038;7.216;2023-05-10T16:15:15;17.00;99.90
1129;DHT22;553;51.038;7.216;2023-05-10T16:17:42;16.90;99.90
1129;DHT22;553;51.038;7.216;2023-05-10T16:20:10;16.90;99.90
1129;DHT22;553;51.038;7.216;2023-05-10T16:22:37;16.80;99.90
1129;DHT22;553;51.038;7.216;2023-05-10T16:25:04;16.80;99.90
1129;DHT22;553;51.038;7.216;2023-05-10T16:27:30;16.80;99.90
1129;DHT22;553;51.038;7.216;2023-05-10T16:29:58;16.80;99.90
1129;DHT22;553;51.038;7.216;2023-05-10T16:32:25;16.70;99.90
1129;DHT22;553;51.038;7.216;2023-05-10T16:34:52;16.70;99.90
1129;DHT22;553;51.038;7.216;2023-05-10T16:37:19;16.70;99.90
1129;DHT22;553;51.038;7.216;2023-05-10T16:39:46;16.70;99.90
1129;DHT22;553;51.038;7.216;2023-05-10T16:42:13;16.60;99.90
1129;DHT22;553;51.038;7.216;2023-05-10T16:44:39;16.60;99.90
1129;DHT22;553;51.038;7.216;2023-05-10T16:47:06;16.40;99.90
1129;DHT22;553;51.038;7.216;2023-05-10T16:49:34;16.40;99.90